createdAt,value
2016-05-18T00:00:01.788Z,84.66
2016-05-18T00:01:01.822Z,84.75
2016-05-18T00:02:01.855Z,84.66
2016-05-18T00:03:01.890Z,84.75
2016-05-18T00:04:01.924Z,84.7
2016-05-18T00:05:01.974Z,84.56
2016-05-18T00:06:02.008Z,84.56
2016-05-18T00:07:02.041Z,84.47
2016-05-18T00:08:02.091Z,84.47
2016-05-18T00:09:02.109Z,84.47
2016-05-18T00:10:02.158Z,84.66
2016-05-18T00:11:02.193Z,84.85
2016-05-18T00:12:02.227Z,84.56
2016-05-18T00:13:02.260Z,84.37
2016-05-18T00:14:02.294Z,84.66
2016-05-18T00:15:02.329Z,84.37
2016-05-18T00:16:02.362Z,84.47
2016-05-18T00:17:02.412Z,84.47
2016-05-18T00:18:02.446Z,84.66
2016-05-18T00:19:02.480Z,84.47
2016-05-18T00:20:02.514Z,84.47
2016-05-18T00:21:02.548Z,84.56
2016-05-18T00:22:02.581Z,84.51
2016-05-18T00:23:02.631Z,84.37
2016-05-18T00:24:02.665Z,84.56
2016-05-18T00:25:02.698Z,84.75
2016-05-18T00:26:02.734Z,84.56
2016-05-18T00:27:02.783Z,84.75
2016-05-18T00:28:02.816Z,84.95
2016-05-18T00:29:02.850Z,85.08
2016-05-18T00:30:02.884Z,84.47
2016-05-18T00:31:02.919Z,84.7
2016-05-18T00:32:02.952Z,84.56
2016-05-18T00:33:02.987Z,84.85
2016-05-18T00:34:03.036Z,84.56
2016-05-18T00:35:03.069Z,84.47
2016-05-18T00:36:03.103Z,84.56
2016-05-18T00:37:03.138Z,84.47
2016-05-18T00:38:03.187Z,84.85
2016-05-18T00:39:03.222Z,85.14
2016-05-18T00:40:03.255Z,84.66
2016-05-18T00:41:03.288Z,84.75
2016-05-18T00:42:03.324Z,84.56
2016-05-18T00:43:03.357Z,84.47
2016-05-18T00:44:03.406Z,84.75
2016-05-18T00:45:03.441Z,84.85
2016-05-18T00:46:03.474Z,84.95
2016-05-18T00:47:03.508Z,85.24
2016-05-18T00:48:03.542Z,85.14
2016-05-18T00:49:03.576Z,84.85
2016-05-18T00:50:03.625Z,85.14
2016-05-18T00:51:03.660Z,85.04
2016-05-18T00:52:03.693Z,85.14
2016-05-18T00:53:03.728Z,84.95
2016-05-18T00:54:03.762Z,84.75
2016-05-18T00:55:03.795Z,85.14
2016-05-18T00:56:03.845Z,85.14
2016-05-18T00:57:03.878Z,84.75
2016-05-18T00:58:03.912Z,85.14
2016-05-18T00:59:03.947Z,84.75
2016-05-18T01:00:03.981Z,84.85
2016-05-18T01:01:04.014Z,85.14
2016-05-18T01:02:04.048Z,85.14
2016-05-18T01:03:04.098Z,85.24
2016-05-18T01:04:04.132Z,85.14
2016-05-18T01:05:04.169Z,84.85
2016-05-18T01:06:04.219Z,84.85
2016-05-18T01:07:04.252Z,84.95
2016-05-18T01:08:04.286Z,84.95
2016-05-18T01:09:04.320Z,85.14
2016-05-18T01:10:04.354Z,85.04
2016-05-18T01:11:04.404Z,84.95
2016-05-18T01:12:04.452Z,85.14
2016-05-18T01:13:04.503Z,84.85
2016-05-18T01:14:04.505Z,84.95
2016-05-18T01:15:04.539Z,84.47
2016-05-18T01:16:04.573Z,84.66
2016-05-18T01:17:04.607Z,84.85
2016-05-18T01:18:04.641Z,85.04
2016-05-18T01:19:04.690Z,85.14
2016-05-18T01:20:04.725Z,84.95
2016-05-18T01:21:04.759Z,84.95
2016-05-18T01:22:04.793Z,85.14
2016-05-18T01:23:04.826Z,85.04
2016-05-18T01:24:04.875Z,84.95
2016-05-18T01:25:04.910Z,85.14
2016-05-18T01:26:04.944Z,85.33
2016-05-18T01:27:04.978Z,85.14
2016-05-18T01:28:05.012Z,84.95
2016-05-18T01:29:05.061Z,85.14
2016-05-18T01:30:05.095Z,84.95
2016-05-18T01:31:05.128Z,85.14
2016-05-18T01:32:05.164Z,85.14
2016-05-18T01:33:05.197Z,85.14
2016-05-18T01:34:05.231Z,85.24
2016-05-18T01:35:05.264Z,85.14
2016-05-18T01:36:05.314Z,84.95
2016-05-18T01:37:05.364Z,85.24
2016-05-18T01:38:05.382Z,84.95
2016-05-18T01:39:05.416Z,85.14
2016-05-18T01:40:05.450Z,85.14
2016-05-18T01:41:05.485Z,85.14
2016-05-18T01:42:05.533Z,84.85
2016-05-18T01:43:05.568Z,84.95
2016-05-18T01:44:05.602Z,85.04
2016-05-18T01:45:05.635Z,84.95
2016-05-18T01:46:05.669Z,85.24
2016-05-18T01:47:05.719Z,85.14
2016-05-18T01:48:05.754Z,85.04
2016-05-18T01:49:05.787Z,85.14
2016-05-18T01:50:05.821Z,85.04
2016-05-18T01:51:05.854Z,84.95
2016-05-18T01:52:05.889Z,85.14
2016-05-18T01:53:06.313Z,85.24
2016-05-18T01:54:05.972Z,85.14
2016-05-18T01:55:06.006Z,85.33
2016-05-18T01:56:06.040Z,84.85
2016-05-18T01:57:06.074Z,85.14
2016-05-18T01:58:06.123Z,85.24
2016-05-18T01:59:06.158Z,85.33
2016-05-18T02:00:06.192Z,85.04
2016-05-18T02:01:06.225Z,85.04
2016-05-18T02:02:06.260Z,84.95
2016-05-18T02:03:06.294Z,85.04
2016-05-18T02:04:06.342Z,85.24
2016-05-18T02:05:06.377Z,84.95
2016-05-18T02:06:06.411Z,85.33
2016-05-18T02:07:06.444Z,85.24
2016-05-18T02:08:06.478Z,84.85
2016-05-18T02:09:06.528Z,84.95
2016-05-18T02:10:06.562Z,84.95
2016-05-18T02:11:06.597Z,85.33
2016-05-18T02:12:06.630Z,84.95
2016-05-18T02:13:06.663Z,85.24
2016-05-18T02:14:06.699Z,84.85
2016-05-18T02:15:06.747Z,85.24
2016-05-18T02:16:06.782Z,84.95
2016-05-18T02:17:06.815Z,85.24
2016-05-18T02:18:06.849Z,84.85
2016-05-18T02:19:06.883Z,85.14
2016-05-18T02:20:06.917Z,85.33
2016-05-18T02:21:06.951Z,85.04
2016-05-18T02:22:06.985Z,85.14
2016-05-18T02:23:07.035Z,84.95
2016-05-18T02:24:07.084Z,85.14
2016-05-18T02:25:07.103Z,85.04
2016-05-18T02:26:07.137Z,85.04
2016-05-18T02:27:07.170Z,85.24
2016-05-18T02:28:07.220Z,85.04
2016-05-18T02:29:07.253Z,85.04
2016-05-18T02:30:07.288Z,85.04
2016-05-18T02:31:07.322Z,84.95
2016-05-18T02:32:07.356Z,85.14
2016-05-18T02:33:07.389Z,85.14
2016-05-18T02:34:07.439Z,84.95
2016-05-18T02:35:07.473Z,85.24
2016-05-18T02:36:07.508Z,85.14
2016-05-18T02:37:07.541Z,85.14
2016-05-18T02:38:08.044Z,84.95
2016-05-18T02:39:07.609Z,85.24
2016-05-18T02:40:07.658Z,85.04
2016-05-18T02:41:07.692Z,85.14
2016-05-18T02:42:07.727Z,85.33
2016-05-18T02:43:07.760Z,85.04
2016-05-18T02:44:07.794Z,84.95
2016-05-18T02:45:07.827Z,85.04
2016-05-18T02:46:07.878Z,85.14
2016-05-18T02:47:07.912Z,84.85
2016-05-18T02:48:07.946Z,85.24
2016-05-18T02:49:07.979Z,85.33
2016-05-18T02:50:08.014Z,84.85
2016-05-18T02:51:08.063Z,85.62
2016-05-18T02:52:08.096Z,85.81
2016-05-18T02:53:08.132Z,85.1
2016-05-18T02:54:08.165Z,85.81
2016-05-18T02:55:08.198Z,85
2016-05-18T02:56:08.232Z,85.04
2016-05-18T02:57:08.267Z,84.95
2016-05-18T02:58:08.317Z,85.04
2016-05-18T02:59:08.350Z,84.95
2016-05-18T03:00:08.384Z,85.67
2016-05-18T03:01:08.418Z,85.67
2016-05-18T03:02:08.452Z,85.58
2016-05-18T03:03:08.486Z,85.42
2016-05-18T03:04:08.536Z,85.19
2016-05-18T03:05:08.586Z,84.95
2016-05-18T03:06:08.603Z,85.62
2016-05-18T03:07:08.637Z,85.04
2016-05-18T03:08:08.671Z,85.04
2016-05-18T03:09:08.721Z,85.28
2016-05-18T03:10:08.755Z,85.58
2016-05-18T03:11:08.788Z,85.14
2016-05-18T03:12:08.823Z,85.48
2016-05-18T03:13:08.857Z,85.14
2016-05-18T03:14:08.890Z,85.28
2016-05-18T03:15:08.924Z,85.48
2016-05-18T03:16:08.974Z,85.24
2016-05-18T03:17:09.008Z,85.1
2016-05-18T03:18:09.041Z,84.91
2016-05-18T03:19:09.077Z,85.1
2016-05-18T03:20:09.110Z,84.91
2016-05-18T03:21:09.143Z,85.1
2016-05-18T03:22:09.177Z,85.1
2016-05-18T03:23:09.226Z,85.19
2016-05-18T03:24:09.262Z,85.19
2016-05-18T03:25:09.295Z,85
2016-05-18T03:26:09.329Z,84.95
2016-05-18T03:27:09.379Z,84.71
2016-05-18T03:28:09.412Z,84.91
2016-05-18T03:29:09.446Z,84.81
2016-05-18T03:30:09.481Z,84.91
2016-05-18T03:31:09.515Z,85
2016-05-18T03:32:09.548Z,84.81
2016-05-18T03:33:09.582Z,84.81
2016-05-18T03:34:09.631Z,85.28
2016-05-18T03:35:09.666Z,84.91
2016-05-18T03:36:09.700Z,85
2016-05-18T03:37:09.733Z,84.95
2016-05-18T03:38:10.206Z,85.1
2016-05-18T03:39:09.801Z,85.48
2016-05-18T03:40:09.850Z,85.38
2016-05-18T03:41:09.885Z,85.67
2016-05-18T03:42:09.919Z,85.71
2016-05-18T03:43:09.953Z,85.71
2016-05-18T03:44:09.987Z,85.19
2016-05-18T03:45:10.021Z,84.91
2016-05-18T03:46:10.071Z,85.1
2016-05-18T03:47:10.105Z,85
2016-05-18T03:48:10.138Z,85
2016-05-18T03:49:10.172Z,84.91
2016-05-18T03:50:10.207Z,85.28
2016-05-18T03:51:10.255Z,85.28
2016-05-18T03:52:10.290Z,85.33
2016-05-18T03:53:10.464Z,85.28
2016-05-18T03:54:10.358Z,85
2016-05-18T03:55:10.391Z,84.91
2016-05-18T03:56:10.426Z,85.19
2016-05-18T03:57:10.476Z,85.1
2016-05-18T03:58:10.509Z,85.1
2016-05-18T03:59:10.543Z,85.14
2016-05-18T04:00:10.576Z,85.1
2016-05-18T04:01:10.611Z,84.81
2016-05-18T04:02:10.645Z,85
2016-05-18T04:03:10.695Z,85
2016-05-18T04:04:10.728Z,85.28
2016-05-18T04:05:10.762Z,85.14
2016-05-18T04:06:10.796Z,85.14
2016-05-18T04:07:10.830Z,84.81
2016-05-18T04:08:10.880Z,85.1
2016-05-18T04:09:10.898Z,85.28
2016-05-18T04:10:10.947Z,84.91
2016-05-18T04:11:10.981Z,84.91
2016-05-18T04:12:11.016Z,85.28
2016-05-18T04:13:11.050Z,85.28
2016-05-18T04:14:11.083Z,85
2016-05-18T04:15:11.117Z,85.1
2016-05-18T04:16:11.166Z,85.1
2016-05-18T04:17:11.200Z,84.91
2016-05-18T04:18:11.250Z,85.1
2016-05-18T04:19:11.268Z,85.14
2016-05-18T04:20:11.303Z,85.14
2016-05-18T04:21:11.352Z,85.1
2016-05-18T04:22:11.386Z,84.91
2016-05-18T04:23:11.420Z,85.14
2016-05-18T04:24:11.454Z,84.81
2016-05-18T04:25:11.488Z,84.85
2016-05-18T04:26:11.521Z,84.91
2016-05-18T04:27:11.557Z,85.14
2016-05-18T04:28:11.605Z,85.28
2016-05-18T04:29:11.639Z,85.38
2016-05-18T04:30:11.673Z,85.14
2016-05-18T04:31:11.706Z,84.81
2016-05-18T04:32:11.740Z,85.1
2016-05-18T04:33:11.775Z,85.14
2016-05-18T04:34:11.825Z,85.14
2016-05-18T04:35:11.859Z,85.14
2016-05-18T04:36:11.893Z,85.14
2016-05-18T04:37:11.926Z,84.85
2016-05-18T04:38:11.961Z,84.91
2016-05-18T04:39:12.010Z,84.71
2016-05-18T04:40:12.044Z,84.85
2016-05-18T04:41:12.078Z,84.85
2016-05-18T04:42:12.111Z,84.85
2016-05-18T04:43:12.145Z,84.91
2016-05-18T04:44:12.180Z,84.85
2016-05-18T04:45:12.230Z,84.85
2016-05-18T04:46:12.263Z,85.24
2016-05-18T04:47:12.297Z,84.47
2016-05-18T04:48:12.330Z,84.95
2016-05-18T04:49:12.365Z,85.04
2016-05-18T04:50:12.399Z,84.75
2016-05-18T04:51:12.449Z,84.95
2016-05-18T04:52:12.483Z,84.47
2016-05-18T04:53:12.516Z,84.37
2016-05-18T04:54:12.550Z,84.56
2016-05-18T04:55:12.584Z,84.66
2016-05-18T04:56:12.618Z,84.56
2016-05-18T04:57:12.667Z,84.66
2016-05-18T04:58:12.702Z,85.14
2016-05-18T04:59:12.735Z,84.37
2016-05-18T05:00:12.770Z,84.47
2016-05-18T05:01:12.819Z,84.66
2016-05-18T05:02:12.853Z,84.66
2016-05-18T05:03:12.887Z,84.66
2016-05-18T05:04:12.920Z,83.98
2016-05-18T05:05:12.954Z,84.75
2016-05-18T05:06:12.989Z,84.47
2016-05-18T05:07:13.022Z,84.66
2016-05-18T05:08:13.072Z,84.66
2016-05-18T05:09:13.107Z,83.98
2016-05-18T05:10:13.139Z,83.98
2016-05-18T05:11:13.174Z,84.18
2016-05-18T05:12:13.208Z,84.75
2016-05-18T05:13:13.242Z,84.08
2016-05-18T05:14:13.291Z,83.98
2016-05-18T05:15:13.325Z,84.08
2016-05-18T05:16:13.359Z,84.56
2016-05-18T05:17:13.394Z,84.18
2016-05-18T05:18:13.428Z,84.37
2016-05-18T05:19:13.461Z,84.18
2016-05-18T05:20:13.510Z,84.37
2016-05-18T05:21:13.544Z,84.37
2016-05-18T05:22:13.579Z,84.27
2016-05-18T05:23:13.613Z,83.8
2016-05-18T05:24:13.647Z,83.89
2016-05-18T05:25:13.680Z,83.98
2016-05-18T05:26:13.730Z,83.51
2016-05-18T05:27:13.763Z,84.18
2016-05-18T05:28:13.799Z,84.27
2016-05-18T05:29:13.832Z,84.18
2016-05-18T05:30:13.865Z,83.89
2016-05-18T05:31:13.899Z,83.98
2016-05-18T05:32:13.949Z,84.18
2016-05-18T05:33:13.984Z,84.18
2016-05-18T05:34:14.017Z,84.08
2016-05-18T05:35:14.051Z,84.27
2016-05-18T05:36:14.084Z,84.18
2016-05-18T05:37:14.135Z,84.27
2016-05-18T05:38:14.168Z,84.08
2016-05-18T05:39:14.203Z,84.66
2016-05-18T05:40:14.237Z,84.95
2016-05-18T05:41:14.270Z,84.37
2016-05-18T05:42:14.304Z,84.66
2016-05-18T05:43:14.353Z,84.66
2016-05-18T05:44:14.388Z,84.75
2016-05-18T05:45:14.422Z,83.98
2016-05-18T05:46:14.455Z,84.75
2016-05-18T05:47:14.489Z,84.56
2016-05-18T05:48:14.539Z,85.04
2016-05-18T05:49:14.572Z,85.04
2016-05-18T05:50:14.607Z,85.14
2016-05-18T05:51:14.641Z,84.66
2016-05-18T05:52:14.674Z,84.95
2016-05-18T05:53:14.724Z,85.24
2016-05-18T05:54:14.758Z,84.85
2016-05-18T05:55:14.793Z,85.24
2016-05-18T05:56:14.827Z,85.14
2016-05-18T05:57:14.861Z,84.85
2016-05-18T05:58:14.894Z,84.56
2016-05-18T05:59:14.943Z,84.56
2016-05-18T06:00:14.977Z,84.75
2016-05-18T06:01:15.027Z,85.24
2016-05-18T06:02:15.046Z,84.37
2016-05-18T06:03:15.079Z,84.37
2016-05-18T06:04:15.129Z,84.56
2016-05-18T06:05:15.163Z,84.56
2016-05-18T06:06:15.197Z,84.75
2016-05-18T06:07:15.231Z,84.18
2016-05-18T06:08:15.265Z,84.56
2016-05-18T06:09:15.314Z,84.08
2016-05-18T06:10:15.348Z,84.18
2016-05-18T06:11:15.382Z,84.37
2016-05-18T06:12:15.416Z,84.18
2016-05-18T06:13:15.450Z,83.98
2016-05-18T06:14:15.499Z,84.08
2016-05-18T06:15:15.533Z,84.18
2016-05-18T06:16:15.568Z,84.18
2016-05-18T06:17:15.602Z,83.89
2016-05-18T06:18:15.635Z,84.37
2016-05-18T06:19:15.685Z,84.08
2016-05-18T06:20:15.703Z,83.51
2016-05-18T06:21:15.753Z,83.89
2016-05-18T06:22:15.786Z,83.7
2016-05-18T06:23:15.821Z,83.31
2016-05-18T06:24:15.855Z,83.41
2016-05-18T06:25:15.904Z,83.6
2016-05-18T06:26:15.938Z,83.51
2016-05-18T06:27:15.972Z,83.51
2016-05-18T06:28:16.006Z,83.31
2016-05-18T06:29:16.040Z,83.31
2016-05-18T06:30:16.074Z,83.7
2016-05-18T06:31:16.107Z,83.7
2016-05-18T06:32:16.157Z,84.18
2016-05-18T06:33:16.191Z,84.85
2016-05-18T06:34:16.226Z,84.18
2016-05-18T06:35:16.260Z,84.27
2016-05-18T06:36:16.293Z,83.98
2016-05-18T06:37:16.343Z,84.08
2016-05-18T06:38:16.376Z,84.18
2016-05-18T06:39:16.411Z,84.41
2016-05-18T06:40:16.445Z,83.98
2016-05-18T06:41:16.479Z,84.18
2016-05-18T06:42:16.528Z,83.8
2016-05-18T06:43:16.561Z,83.74
2016-05-18T06:44:16.595Z,83.41
2016-05-18T06:45:16.630Z,83.7
2016-05-18T06:46:16.664Z,83.6
2016-05-18T06:47:16.713Z,83.36
2016-05-18T06:48:16.748Z,83.41
2016-05-18T06:49:16.781Z,83.41
2016-05-18T06:50:16.816Z,83.41
2016-05-18T06:51:16.850Z,83.54
2016-05-18T06:52:16.977Z,83.31
2016-05-18T06:53:16.946Z,83.41
2016-05-18T06:54:17.092Z,83.7
2016-05-18T06:55:16.998Z,83.51
2016-05-18T06:56:17.035Z,83.8
2016-05-18T06:57:17.194Z,83.6
2016-05-18T06:58:17.227Z,83.22
2016-05-18T06:59:17.149Z,83.41
2016-05-18T07:00:17.183Z,83.7
2016-05-18T07:01:17.218Z,83.16
2016-05-18T07:02:17.266Z,82.93
2016-05-18T07:03:17.285Z,82.84
2016-05-18T07:04:17.335Z,82.84
2016-05-18T07:05:17.368Z,83.51
2016-05-18T07:06:17.402Z,82.84
2016-05-18T07:07:17.437Z,82.93
2016-05-18T07:08:17.486Z,82.84
2016-05-18T07:09:17.520Z,83.22
2016-05-18T07:10:17.554Z,82.35
2016-05-18T07:11:17.588Z,82.2
2016-05-18T07:12:17.622Z,82.64
2016-05-18T07:13:17.656Z,81.78
2016-05-18T07:14:17.689Z,81.68
2016-05-18T07:15:17.740Z,81.72
2016-05-18T07:16:17.773Z,81.4
2016-05-18T07:17:17.807Z,81.87
2016-05-18T07:18:17.841Z,81.59
2016-05-18T07:19:17.875Z,81.68
2016-05-18T07:20:17.925Z,81.34
2016-05-18T07:21:17.958Z,81.53
2016-05-18T07:22:17.992Z,81.59
2016-05-18T07:23:18.027Z,81.82
2016-05-18T07:24:18.060Z,82.1
2016-05-18T07:25:18.110Z,81.63
2016-05-18T07:26:18.144Z,81.43
2016-05-18T07:27:18.178Z,81.43
2016-05-18T07:28:18.211Z,81.82
2016-05-18T07:29:18.246Z,81.59
2016-05-18T07:30:18.296Z,81.63
2016-05-18T07:31:18.330Z,81.92
2016-05-18T07:32:18.380Z,82.35
2016-05-18T07:33:18.397Z,81.63
2016-05-18T07:34:18.431Z,81.82
2016-05-18T07:35:18.480Z,82.01
2016-05-18T07:36:18.515Z,81.82
2016-05-18T07:37:18.549Z,81.72
2016-05-18T07:38:18.770Z,81.34
2016-05-18T07:39:18.632Z,81.15
2016-05-18T07:40:18.650Z,81.72
2016-05-18T07:41:18.701Z,81.82
2016-05-18T07:42:18.734Z,81.63
2016-05-18T07:43:18.768Z,81.63
2016-05-18T07:44:18.817Z,81.72
2016-05-18T07:45:18.836Z,81.72
2016-05-18T07:46:18.885Z,81.72
2016-05-18T07:47:18.920Z,81.82
2016-05-18T07:48:18.953Z,81.34
2016-05-18T07:49:18.987Z,80.57
2016-05-18T07:50:19.020Z,80.86
2016-05-18T07:51:19.070Z,80.86
2016-05-18T07:52:19.105Z,80.76
2016-05-18T07:53:19.138Z,81.15
2016-05-18T07:54:19.172Z,80.47
2016-05-18T07:55:19.206Z,80.09
2016-05-18T07:56:19.256Z,80.09
2016-05-18T07:57:19.289Z,79.22
2016-05-18T07:58:19.324Z,79.71
2016-05-18T07:59:19.357Z,79.99
2016-05-18T08:00:19.392Z,80.28
2016-05-18T08:01:19.442Z,79.9
2016-05-18T08:02:19.475Z,80.57
2016-05-18T08:03:19.510Z,79.8
2016-05-18T08:04:19.543Z,79.9
2016-05-18T08:05:19.577Z,79.8
2016-05-18T08:06:19.627Z,79.71
2016-05-18T08:07:19.660Z,79.9
2016-05-18T08:08:19.694Z,80.19
2016-05-18T08:09:19.729Z,80.28
2016-05-18T08:10:19.763Z,80.47
2016-05-18T08:11:19.827Z,80.47
2016-05-18T08:12:19.846Z,80.38
2016-05-18T08:13:19.879Z,80.19
2016-05-18T08:14:19.929Z,80.09
2016-05-18T08:15:19.948Z,80.57
2016-05-18T08:16:19.981Z,80.57
2016-05-18T08:17:20.125Z,80.09
2016-05-18T08:18:20.127Z,80.09
2016-05-18T08:19:20.098Z,80.66
2016-05-18T08:20:20.258Z,80.86
2016-05-18T08:21:20.167Z,80.76
2016-05-18T08:22:20.217Z,80.86
2016-05-18T08:23:20.251Z,81.38
2016-05-18T08:24:20.316Z,81.19
2016-05-18T08:25:20.334Z,80.99
2016-05-18T08:26:20.368Z,81.09
2016-05-18T08:27:20.402Z,80.8
2016-05-18T08:28:20.477Z,80.86
2016-05-18T08:29:20.523Z,81.09
2016-05-18T08:30:20.598Z,80.71
2016-05-18T08:31:20.690Z,80.42
2016-05-18T08:32:20.767Z,80.71
2016-05-18T08:33:20.836Z,80.9
2016-05-18T08:34:20.885Z,80.61
2016-05-18T08:35:20.935Z,80.71
2016-05-18T08:36:20.999Z,80.42
2016-05-18T08:37:21.049Z,80.04
2016-05-18T08:38:21.096Z,80.22
2016-05-18T08:39:21.135Z,80.22
2016-05-18T08:40:21.190Z,81.19
2016-05-18T08:41:21.229Z,80.71
2016-05-18T08:42:21.268Z,80.61
2016-05-18T08:43:21.308Z,80.13
2016-05-18T08:44:21.344Z,80.13
2016-05-18T08:45:21.380Z,80.04
2016-05-18T08:46:21.432Z,80.22
2016-05-18T08:47:21.468Z,80.13
2016-05-18T08:48:21.503Z,80.13
2016-05-18T08:49:21.554Z,80.04
2016-05-18T08:50:21.589Z,80.13
2016-05-18T08:51:21.623Z,80.32
2016-05-18T08:52:21.658Z,80.13
2016-05-18T08:53:21.880Z,80.32
2016-05-18T08:54:21.742Z,79.84
2016-05-18T08:55:21.776Z,80.13
2016-05-18T08:56:21.811Z,79.94
2016-05-18T08:57:21.844Z,80.22
2016-05-18T08:58:21.878Z,77.53
2016-05-18T08:59:21.927Z,77.73
2016-05-18T09:00:21.961Z,78.3
2016-05-18T09:01:21.996Z,78.59
2016-05-18T09:02:22.029Z,78.4
2016-05-18T09:03:22.063Z,78.69
2016-05-18T09:04:22.113Z,78.78
2016-05-18T09:05:22.147Z,78.59
2016-05-18T09:06:22.196Z,78.98
2016-05-18T09:07:22.215Z,78.98
2016-05-18T09:08:22.264Z,78.98
2016-05-18T09:09:22.298Z,78.78
2016-05-18T09:10:22.332Z,78.78
2016-05-18T09:11:22.366Z,78.59
2016-05-18T09:12:22.415Z,78.78
2016-05-18T09:13:22.449Z,78.59
2016-05-18T09:14:22.484Z,78.78
2016-05-18T09:15:22.517Z,78.88
2016-05-18T09:16:22.551Z,78.78
2016-05-18T09:17:22.601Z,78.78
2016-05-18T09:18:22.635Z,78.98
2016-05-18T09:19:22.684Z,78.98
2016-05-18T09:20:22.703Z,78.98
2016-05-18T09:21:22.752Z,78.98
2016-05-18T09:22:22.786Z,79.3
2016-05-18T09:23:23.039Z,78.88
2016-05-18T09:24:22.854Z,79.02
2016-05-18T09:25:22.903Z,79.07
2016-05-18T09:26:22.938Z,79.3
2016-05-18T09:27:22.972Z,79.69
2016-05-18T09:28:23.005Z,79.88
2016-05-18T09:29:23.039Z,79.88
2016-05-18T09:30:23.088Z,79.98
2016-05-18T09:31:23.122Z,80.27
2016-05-18T09:32:23.157Z,80.27
2016-05-18T09:33:23.191Z,79.88
2016-05-18T09:34:23.240Z,79.88
2016-05-18T09:35:23.274Z,79.69
2016-05-18T09:36:23.308Z,79.79
2016-05-18T09:37:23.342Z,79.79
2016-05-18T09:38:23.391Z,79.3
2016-05-18T09:39:23.426Z,79.5
2016-05-18T09:40:23.460Z,79.88
2016-05-18T09:41:23.493Z,79.4
2016-05-18T09:42:23.527Z,79.11
2016-05-18T09:43:23.576Z,79.11
2016-05-18T09:44:23.611Z,79.02
2016-05-18T09:45:23.645Z,78.92
2016-05-18T09:46:23.679Z,78.83
2016-05-18T09:47:23.728Z,78.63
2016-05-18T09:48:23.762Z,78.83
2016-05-18T09:49:23.796Z,78.63
2016-05-18T09:50:23.830Z,78.92
2016-05-18T09:51:23.880Z,78.83
2016-05-18T09:52:23.914Z,78.83
2016-05-18T09:53:23.948Z,78.83
2016-05-18T09:54:23.981Z,78.34
2016-05-18T09:55:24.031Z,78.44
2016-05-18T09:56:24.065Z,78.34
2016-05-18T09:57:24.100Z,78.44
2016-05-18T09:58:24.133Z,78.83
2016-05-18T09:59:24.167Z,78.83
2016-05-18T10:00:24.216Z,78.83
2016-05-18T10:01:24.250Z,78.53
2016-05-18T10:02:24.285Z,78.25
2016-05-18T10:03:24.319Z,78.15
2016-05-18T10:04:24.368Z,78.15
2016-05-18T10:05:24.402Z,78.15
2016-05-18T10:06:24.436Z,78.25
2016-05-18T10:07:24.469Z,78.06
2016-05-18T10:08:24.676Z,77.67
2016-05-18T10:09:24.554Z,77.48
2016-05-18T10:10:24.587Z,77.67
2016-05-18T10:11:24.621Z,77.58
2016-05-18T10:12:24.671Z,78.06
2016-05-18T10:13:24.704Z,77.86
2016-05-18T10:14:24.738Z,77.86
2016-05-18T10:15:24.788Z,78.06
2016-05-18T10:16:24.822Z,78.25
2016-05-18T10:17:24.856Z,78.06
2016-05-18T10:18:24.890Z,78.34
2016-05-18T10:19:24.924Z,78.44
2016-05-18T10:20:24.973Z,78.63
2016-05-18T10:21:25.007Z,78.53
2016-05-18T10:22:25.042Z,78.53
2016-05-18T10:23:25.075Z,78.83
2016-05-18T10:24:25.125Z,78.73
2016-05-18T10:25:25.159Z,76.81
2016-05-18T10:26:25.192Z,75.37
2016-05-18T10:27:25.227Z,71.33
2016-05-18T10:28:25.276Z,69.31
2016-05-18T10:29:25.325Z,63.15
2016-05-18T10:30:25.344Z,61.04
2016-05-18T10:31:25.378Z,62.58
2016-05-18T10:32:25.428Z,61.52
2016-05-18T10:33:25.461Z,60.66
2016-05-18T10:34:25.496Z,60.63
2016-05-18T10:35:25.530Z,61.3
2016-05-18T10:36:25.564Z,60.82
2016-05-18T10:37:25.613Z,62.07
2016-05-18T10:38:26.099Z,62.64
2016-05-18T10:39:25.680Z,62.26
2016-05-18T10:40:25.730Z,62.07
2016-05-18T10:41:25.765Z,60.34
2016-05-18T10:42:25.799Z,61.2
2016-05-18T10:43:25.832Z,60.05
2016-05-18T10:44:25.866Z,60.63
2016-05-18T10:45:25.916Z,61.58
2016-05-18T10:46:25.965Z,61.58
2016-05-18T10:47:25.999Z,60.43
2016-05-18T10:48:26.018Z,59.66
2016-05-18T10:49:26.068Z,61.01
2016-05-18T10:50:26.101Z,62.26
2016-05-18T10:51:26.134Z,62.84
2016-05-18T10:52:26.170Z,62.52
2016-05-18T10:53:26.781Z,62.07
2016-05-18T10:54:26.253Z,61.46
2016-05-18T10:55:26.287Z,61.97
2016-05-18T10:56:26.320Z,61.87
2016-05-18T10:57:26.354Z,62.16
2016-05-18T10:58:26.404Z,61.58
2016-05-18T10:59:26.438Z,59.95
2016-05-18T11:00:26.472Z,59.95
2016-05-18T11:01:26.506Z,58.42
2016-05-18T11:02:26.556Z,59.19
2016-05-18T11:03:26.589Z,58.89
2016-05-18T11:04:26.623Z,59.28
2016-05-18T11:05:26.657Z,60.05
2016-05-18T11:06:26.691Z,60.72
2016-05-18T11:07:26.741Z,58.61
2016-05-18T11:08:26.806Z,56.4
2016-05-18T11:09:26.808Z,56.4
2016-05-18T11:10:26.842Z,57.17
2016-05-18T11:11:26.877Z,57.62
2016-05-18T11:12:26.926Z,58.03
2016-05-18T11:13:26.960Z,57.9
2016-05-18T11:14:26.994Z,58.39
2016-05-18T11:15:27.027Z,58.67
2016-05-18T11:16:27.076Z,59.92
2016-05-18T11:17:27.112Z,60.5
2016-05-18T11:18:27.145Z,60.78
2016-05-18T11:19:27.179Z,60.5
2016-05-18T11:20:27.212Z,61.01
2016-05-18T11:21:27.262Z,61.11
2016-05-18T11:22:27.296Z,61.11
2016-05-18T11:23:27.331Z,60.53
2016-05-18T11:24:27.364Z,60.05
2016-05-18T11:25:27.398Z,59.95
2016-05-18T11:26:27.432Z,60.43
2016-05-18T11:27:27.481Z,60.24
2016-05-18T11:28:27.517Z,61.2
2016-05-18T11:29:27.550Z,61.97
2016-05-18T11:30:27.583Z,62.64
2016-05-18T11:31:27.633Z,63.51
2016-05-18T11:32:27.667Z,63.99
2016-05-18T11:33:27.700Z,64.85
2016-05-18T11:34:27.735Z,64.47
2016-05-18T11:35:27.785Z,65.14
2016-05-18T11:36:27.819Z,65.33
2016-05-18T11:37:27.852Z,65.43
2016-05-18T11:38:27.886Z,65.81
2016-05-18T11:39:27.921Z,66
2016-05-18T11:40:27.969Z,66.2
2016-05-18T11:41:28.004Z,66.3
2016-05-18T11:42:28.038Z,66.14
2016-05-18T11:43:28.072Z,66.52
2016-05-18T11:44:28.121Z,66.68
2016-05-18T11:45:28.155Z,66.61
2016-05-18T11:46:28.189Z,66.33
2016-05-18T11:47:28.223Z,66.52
2016-05-18T11:48:28.257Z,66.52
2016-05-18T11:49:28.306Z,66.81
2016-05-18T11:50:28.341Z,67.1
2016-05-18T11:51:28.374Z,66.91
2016-05-18T11:52:28.408Z,66.61
2016-05-18T11:53:28.443Z,66.91
2016-05-18T11:54:28.492Z,67.19
2016-05-18T11:55:28.526Z,67.1
2016-05-18T11:56:28.559Z,66.91
2016-05-18T11:57:28.609Z,67.19
2016-05-18T11:58:28.643Z,67.48
2016-05-18T11:59:28.677Z,67.38
2016-05-18T12:00:28.711Z,67.13
2016-05-18T12:01:28.745Z,67.1
2016-05-18T12:02:28.794Z,67.19
2016-05-18T12:03:28.828Z,66.94
2016-05-18T12:04:28.863Z,67.13
2016-05-18T12:05:28.912Z,66.94
2016-05-18T12:06:28.961Z,67.13
2016-05-18T12:07:28.980Z,67.13
2016-05-18T12:08:29.061Z,67.13
2016-05-18T12:09:29.063Z,67.13
2016-05-18T12:10:29.097Z,66.94
2016-05-18T12:11:29.132Z,67.03
2016-05-18T12:12:29.166Z,67.32
2016-05-18T12:13:29.215Z,67.32
2016-05-18T12:14:29.249Z,67.42
2016-05-18T12:15:29.282Z,67.42
2016-05-18T12:16:29.332Z,67.22
2016-05-18T12:17:29.366Z,67.61
2016-05-18T12:18:29.400Z,67.42
2016-05-18T12:19:29.450Z,67.22
2016-05-18T12:20:29.499Z,67.51
2016-05-18T12:21:29.517Z,67.32
2016-05-18T12:22:29.552Z,67.71
2016-05-18T12:23:29.835Z,67.99
2016-05-18T12:24:29.978Z,68.29
2016-05-18T12:25:29.670Z,68.38
2016-05-18T12:26:29.703Z,68.19
2016-05-18T12:27:29.737Z,68.86
2016-05-18T12:28:29.786Z,68.38
2016-05-18T12:29:29.820Z,69.06
2016-05-18T12:30:29.854Z,68.96
2016-05-18T12:31:29.888Z,68.76
2016-05-18T12:32:29.938Z,69.44
2016-05-18T12:33:29.972Z,69.15
2016-05-18T12:34:30.005Z,69.63
2016-05-18T12:35:30.040Z,69.82
2016-05-18T12:36:30.089Z,69.63
2016-05-18T12:37:30.122Z,69.73
2016-05-18T12:38:30.173Z,69.63
2016-05-18T12:39:30.191Z,69.44
2016-05-18T12:40:30.240Z,69.73
2016-05-18T12:41:30.274Z,70.11
2016-05-18T12:42:30.308Z,69.92
2016-05-18T12:43:30.358Z,69.82
2016-05-18T12:44:30.391Z,69.92
2016-05-18T12:45:30.426Z,70.3
2016-05-18T12:46:30.460Z,69.98
2016-05-18T12:47:30.525Z,70.3
2016-05-18T12:48:30.543Z,70.5
2016-05-18T12:49:30.576Z,70.21
2016-05-18T12:50:30.612Z,70.3
2016-05-18T12:51:30.645Z,70.27
2016-05-18T12:52:30.695Z,70.46
2016-05-18T12:53:30.729Z,70.68
2016-05-18T12:54:30.762Z,71.04
2016-05-18T12:55:30.796Z,70.59